sensor_id;sensor_type;location;lat;lon;timestamp;temperature;humidity
69204;DHT22;56317;27.658;85.326;2022-10-16T00:01:31;17.50;99.90
69204;DHT22;56317;27.658;85.326;2022-10-16T00:03:59;17.40;99.90
69204;DHT22;56317;27.658;85.326;2022-10-16T00:06:28;17.40;99.90
69204;DHT22;56317;27.658;85.326;2022-10-16T00:08:56;17.30;99.90
69204;DHT22;56317;27.658;85.326;2022-10-16T00:11:29;17.30;99.90
69204;DHT22;56317;27.658;85.326;2022-10-16T00:14:00;17.20;99.90
69204;DHT22;56317;27.658;85.326;2022-10-16T00:16:28;17.20;99.90
69204;DHT22;56317;27.658;85.326;2022-10-16T00:18:56;17.20;99.90
69204;DHT22;56317;27.658;85.326;2022-10-16T00:21:26;17.20;99.90
69204;DHT22;56317;27.658;85.326;2022-10-16T00:23:56;17.10;99.90
69204;DHT22;56317;27.658;85.326;2022-10-16T00:26:26;17.00;99.90
69204;DHT22;56317;27.658;85.326;2022-10-16T00:28:54;17.00;99.90
69204;DHT22;56317;27.658;85.326;2022-10-16T00:31:22;16.80;99.90
69204;DHT22;56317;27.658;85.326;2022-10-16T00:33:50;16.70;99.90
69204;DHT22;56317;27.658;85.326;2022-10-16T00:36:20;16.60;99.90
69204;DHT22;56317;27.658;85.326;2022-10-16T00:38:51;16.50;99.90
69204;DHT22;56317;27.658;85.326;2022-10-16T00:41:20;16.50;99.90
69204;DHT22;56317;27.658;85.326;2022-10-16T00:43:49;16.50;99.90
69204;DHT22;56317;27.658;85.326;2022-10-16T00:46:21;16.50;99.90
69204;DHT22;56317;27.658;85.326;2022-10-16T00:48:57;16.40;99.90
69204;DHT22;56317;27.658;85.326;2022-10-16T00:51:35;16.40;99.90
69204;DHT22;56317;27.658;85.326;2022-10-16T00:54:11;16.40;99.90
69204;DHT22;56317;27.658;85.326;2022-10-16T00:56:40;16.40;99.90
69204;DHT22;56317;27.658;85.326;2022-10-16T00:59:17;16.30;99.90
69204;DHT22;56317;27.658;85.326;2022-10-16T01:01:45;16.40;99.90
69204;DHT22;56317;27.658;85.326;2022-10-16T01:04:12;16.40;99.90
69204;DHT22;56317;27.658;85.326;2022-10-16T01:06:46;16.40;99.90
69204;DHT22;56317;27.658;85.326;2022-10-16T01:09:26;16.40;99.90
69204;DHT22;56317;27.658;85.326;2022-10-16T01:14:54;16.50;99.90
69204;DHT22;56317;27.658;85.326;2022-10-16T01:26:04;16.70;99.90
69204;DHT22;56317;27.658;85.326;2022-10-16T01:28:41;16.70;99.90
69204;DHT22;56317;27.658;85.326;2022-10-16T01:31:16;16.70;99.90
69204;DHT22;56317;27.658;85.326;2022-10-16T01:33:54;16.80;99.90
69204;DHT22;56317;27.658;85.326;2022-10-16T01:36:27;16.90;99.90
69204;DHT22;56317;27.658;85.326;2022-10-16T01:38:56;16.90;99.90
69204;DHT22;56317;27.658;85.326;2022-10-16T01:41:43;17.00;99.90
69204;DHT22;56317;27.658;85.326;2022-10-16T01:44:19;17.20;99.90
69204;DHT22;56317;27.658;85.326;2022-10-16T01:46:50;17.30;99.90
69204;DHT22;56317;27.658;85.326;2022-10-16T01:49:18;17.40;99.90
69204;DHT22;56317;27.658;85.326;2022-10-16T01:51:49;17.50;99.90
69204;DHT22;56317;27.658;85.326;2022-10-16T01:54:20;17.60;99.90
69204;DHT22;56317;27.658;85.326;2022-10-16T01:56:49;17.70;99.90
69204;DHT22;56317;27.658;85.326;2022-10-16T01:59:20;17.80;99.90
69204;DHT22;56317;27.658;85.326;2022-10-16T02:01:53;17.90;99.90
69204;DHT22;56317;27.658;85.326;2022-10-16T02:04:36;18.10;99.90
69204;DHT22;56317;27.658;85.326;2022-10-16T02:07:04;18.20;99.90
69204;DHT22;56317;27.658;85.326;2022-10-16T02:09:34;18.40;99.90
69204;DHT22;56317;27.658;85.326;2022-10-16T02:12:13;18.60;99.90
69204;DHT22;56317;27.658;85.326;2022-10-16T02:14:42;18.90;99.90
69204;DHT22;56317;27.658;85.326;2022-10-16T02:17:14;19.20;99.90
69204;DHT22;56317;27.658;85.326;2022-10-16T02:19:43;19.40;99.90
69204;DHT22;56317;27.658;85.326;2022-10-16T02:22:18;19.70;99.90
69204;DHT22;56317;27.658;85.326;2022-10-16T02:24:58;20.00;99.90
69204;DHT22;56317;27.658;85.326;2022-10-16T02:27:54;20.30;99.90
69204;DHT22;56317;27.658;85.326;2022-10-16T02:32:57;20.80;99.90
69204;DHT22;56317;27.658;85.326;2022-10-16T02:35:26;21.00;99.90
69204;DHT22;56317;27.658;85.326;2022-10-16T02:37:54;21.20;99.90
69204;DHT22;56317;27.658;85.326;2022-10-16T02:40:22;21.40;99.90
69204;DHT22;56317;27.658;85.326;2022-10-16T02:42:54;21.60;99.90
69204;DHT22;56317;27.658;85.326;2022-10-16T02:45:22;21.80;99.90
69204;DHT22;56317;27.658;85.326;2022-10-16T02:47:49;22.10;99.90
69204;DHT22;56317;27.658;85.326;2022-10-16T02:50:17;22.20;99.90
69204;DHT22;56317;27.658;85.326;2022-10-16T02:52:44;22.30;99.90
69204;DHT22;56317;27.658;85.326;2022-10-16T02:55:11;22.50;99.90
69204;DHT22;56317;27.658;85.326;2022-10-16T02:57:39;22.70;99.90
69204;DHT22;56317;27.658;85.326;2022-10-16T03:00:11;22.80;99.90
69204;DHT22;56317;27.658;85.326;2022-10-16T03:02:39;22.90;99.90
69204;DHT22;56317;27.658;85.326;2022-10-16T03:05:06;23.10;99.90
69204;DHT22;56317;27.658;85.326;2022-10-16T03:07:34;23.40;99.90
69204;DHT22;56317;27.658;85.326;2022-10-16T03:10:01;23.60;99.90
69204;DHT22;56317;27.658;85.326;2022-10-16T03:12:29;23.80;99.90
69204;DHT22;56317;27.658;85.326;2022-10-16T03:14:57;24.00;98.60
69204;DHT22;56317;27.658;85.326;2022-10-16T03:17:25;24.10;98.00
69204;DHT22;56317;27.658;85.326;2022-10-16T03:19:52;24.20;98.60
69204;DHT22;56317;27.658;85.326;2022-10-16T03:22:19;24.20;97.20
69204;DHT22;56317;27.658;85.326;2022-10-16T03:24:46;24.40;97.00
69204;DHT22;56317;27.658;85.326;2022-10-16T03:27:14;24.70;95.80
69204;DHT22;56317;27.658;85.326;2022-10-16T03:29:41;24.90;95.30
69204;DHT22;56317;27.658;85.326;2022-10-16T03:32:08;25.00;95.00
69204;DHT22;56317;27.658;85.326;2022-10-16T03:34:35;25.00;93.40
69204;DHT22;56317;27.658;85.326;2022-10-16T03:37:03;25.10;93.40
69204;DHT22;56317;27.658;85.326;2022-10-16T03:39:30;25.40;92.10
69204;DHT22;56317;27.658;85.326;2022-10-16T03:41:57;25.50;90.80
69204;DHT22;56317;27.658;85.326;2022-10-16T03:44:24;25.70;91.70
69204;DHT22;56317;27.658;85.326;2022-10-16T03:46:52;25.80;91.40
69204;DHT22;56317;27.658;85.326;2022-10-16T03:49:19;26.00;90.70
69204;DHT22;56317;27.658;85.326;2022-10-16T03:51:46;26.10;88.70
69204;DHT22;56317;27.658;85.326;2022-10-16T03:54:13;26.30;87.00
69204;DHT22;56317;27.658;85.326;2022-10-16T03:56:41;26.40;86.50
69204;DHT22;56317;27.658;85.326;2022-10-16T03:59:08;26.50;84.90
69204;DHT22;56317;27.658;85.326;2022-10-16T04:01:35;26.60;85.70
69204;DHT22;56317;27.658;85.326;2022-10-16T04:04:02;26.90;83.10
69204;DHT22;56317;27.658;85.326;2022-10-16T04:06:29;27.10;81.60
69204;DHT22;56317;27.658;85.326;2022-10-16T04:08:57;27.40;79.90
69204;DHT22;56317;27.658;85.326;2022-10-16T04:11:24;27.60;78.40
69204;DHT22;56317;27.658;85.326;2022-10-16T04:13:51;27.80;79.30
69204;DHT22;56317;27.658;85.326;2022-10-16T04:16:18;28.10;78.70
69204;DHT22;56317;27.658;85.326;2022-10-16T04:18:45;28.20;78.20
69204;DHT22;56317;27.658;85.326;2022-10-16T04:21:13;28.20;75.40
69204;DHT22;56317;27.658;85.326;2022-10-16T04:23:40;28.40;76.60
69204;DHT22;56317;27.658;85.326;2022-10-16T04:26:07;28.90;75.70
69204;DHT22;56317;27.658;85.326;2022-10-16T04:28:34;30.60;71.10
69204;DHT22;56317;27.658;85.326;2022-10-16T04:31:04;32.50;67.60
69204;DHT22;56317;27.658;85.326;2022-10-16T04:33:32;34.30;65.10
69204;DHT22;56317;27.658;85.326;2022-10-16T04:36:00;35.60;61.30
69204;DHT22;56317;27.658;85.326;2022-10-16T04:38:28;36.80;56.70
69204;DHT22;56317;27.658;85.326;2022-10-16T04:40:55;37.80;53.70
69204;DHT22;56317;27.658;85.326;2022-10-16T04:43:23;38.60;50.80
69204;DHT22;56317;27.658;85.326;2022-10-16T04:45:50;39.40;49.70
69204;DHT22;56317;27.658;85.326;2022-10-16T04:48:18;40.00;49.70
69204;DHT22;56317;27.658;85.326;2022-10-16T04:50:45;40.30;47.10
69204;DHT22;56317;27.658;85.326;2022-10-16T04:53:13;40.80;45.50
69204;DHT22;56317;27.658;85.326;2022-10-16T04:55:40;41.20;45.60
69204;DHT22;56317;27.658;85.326;2022-10-16T04:58:08;41.40;44.00
69204;DHT22;56317;27.658;85.326;2022-10-16T05:00:35;41.90;43.20
69204;DHT22;56317;27.658;85.326;2022-10-16T05:03:04;42.40;40.60
69204;DHT22;56317;27.658;85.326;2022-10-16T05:05:35;42.60;39.10
69204;DHT22;56317;27.658;85.326;2022-10-16T05:08:03;42.90;39.40
69204;DHT22;56317;27.658;85.326;2022-10-16T05:10:30;43.50;40.10
69204;DHT22;56317;27.658;85.326;2022-10-16T05:12:58;44.00;32.80
69204;DHT22;56317;27.658;85.326;2022-10-16T05:15:25;44.20;32.40
69204;DHT22;56317;27.658;85.326;2022-10-16T05:17:55;44.40;34.80
69204;DHT22;56317;27.658;85.326;2022-10-16T05:20:23;45.20;32.50
69204;DHT22;56317;27.658;85.326;2022-10-16T05:22:50;46.10;32.90
69204;DHT22;56317;27.658;85.326;2022-10-16T05:25:17;46.70;30.80
69204;DHT22;56317;27.658;85.326;2022-10-16T05:27:48;47.20;30.80
69204;DHT22;56317;27.658;85.326;2022-10-16T05:30:16;47.40;30.20
69204;DHT22;56317;27.658;85.326;2022-10-16T05:32:50;47.80;29.50
69204;DHT22;56317;27.658;85.326;2022-10-16T05:35:18;48.10;29.50
69204;DHT22;56317;27.658;85.326;2022-10-16T05:37:46;48.10;28.10
69204;DHT22;56317;27.658;85.326;2022-10-16T05:40:14;48.50;28.80
69204;DHT22;56317;27.658;85.326;2022-10-16T05:42:41;48.40;28.40
69204;DHT22;56317;27.658;85.326;2022-10-16T05:45:10;48.50;28.60
69204;DHT22;56317;27.658;85.326;2022-10-16T05:47:38;49.00;29.30
69204;DHT22;56317;27.658;85.326;2022-10-16T05:50:07;49.60;29.70
69204;DHT22;56317;27.658;85.326;2022-10-16T05:52:35;49.30;27.80
69204;DHT22;56317;27.658;85.326;2022-10-16T05:55:02;49.60;27.60
69204;DHT22;56317;27.658;85.326;2022-10-16T05:57:30;50.50;26.50
69204;DHT22;56317;27.658;85.326;2022-10-16T05:59:57;51.00;26.50
69204;DHT22;56317;27.658;85.326;2022-10-16T06:02:25;51.10;26.10
69204;DHT22;56317;27.658;85.326;2022-10-16T06:04:52;51.50;26.40
69204;DHT22;56317;27.658;85.326;2022-10-16T06:07:21;51.90;26.80
69204;DHT22;56317;27.658;85.326;2022-10-16T06:09:52;52.20;26.20
69204;DHT22;56317;27.658;85.326;2022-10-16T06:12:20;51.90;25.80
69204;DHT22;56317;27.658;85.326;2022-10-16T06:14:47;52.10;25.20
69204;DHT22;56317;27.658;85.326;2022-10-16T06:17:15;51.80;25.70
69204;DHT22;56317;27.658;85.326;2022-10-16T06:19:42;51.20;25.70
69204;DHT22;56317;27.658;85.326;2022-10-16T06:22:10;51.70;25.70
69204;DHT22;56317;27.658;85.326;2022-10-16T06:24:37;51.90;25.90
69204;DHT22;56317;27.658;85.326;2022-10-16T06:27:05;51.70;25.50
69204;DHT22;56317;27.658;85.326;2022-10-16T06:29:32;51.20;26.60
69204;DHT22;56317;27.658;85.326;2022-10-16T06:31:59;50.90;26.60
69204;DHT22;56317;27.658;85.326;2022-10-16T06:34:26;50.90;26.80
69204;DHT22;56317;27.658;85.326;2022-10-16T06:36:53;51.00;27.10
69204;DHT22;56317;27.658;85.326;2022-10-16T06:39:21;50.20;27.60
69204;DHT22;56317;27.658;85.326;2022-10-16T06:41:48;50.20;27.60
69204;DHT22;56317;27.658;85.326;2022-10-16T06:44:16;50.80;28.20
69204;DHT22;56317;27.658;85.326;2022-10-16T06:46:43;51.80;27.50
69204;DHT22;56317;27.658;85.326;2022-10-16T06:49:10;51.80;27.00
69204;DHT22;56317;27.658;85.326;2022-10-16T06:51:37;52.20;27.50
69204;DHT22;56317;27.658;85.326;2022-10-16T06:54:07;52.50;26.80
69204;DHT22;56317;27.658;85.326;2022-10-16T06:56:35;51.80;26.70
69204;DHT22;56317;27.658;85.326;2022-10-16T06:59:02;51.30;26.50
69204;DHT22;56317;27.658;85.326;2022-10-16T07:01:30;51.00;26.80
69204;DHT22;56317;27.658;85.326;2022-10-16T07:03:57;51.30;27.00
69204;DHT22;56317;27.658;85.326;2022-10-16T07:06:26;51.40;26.50
69204;DHT22;56317;27.658;85.326;2022-10-16T07:08:53;51.70;26.20
69204;DHT22;56317;27.658;85.326;2022-10-16T07:11:22;51.70;25.80
69204;DHT22;56317;27.658;85.326;2022-10-16T07:13:50;52.30;26.00
69204;DHT22;56317;27.658;85.326;2022-10-16T07:16:20;52.60;25.50
69204;DHT22;56317;27.658;85.326;2022-10-16T07:18:48;52.10;25.90
69204;DHT22;56317;27.658;85.326;2022-10-16T07:21:19;52.30;26.50
69204;DHT22;56317;27.658;85.326;2022-10-16T07:23:58;51.90;26.10
69204;DHT22;56317;27.658;85.326;2022-10-16T07:26:27;50.70;26.60
69204;DHT22;56317;27.658;85.326;2022-10-16T07:28:54;50.20;27.20
69204;DHT22;56317;27.658;85.326;2022-10-16T07:31:23;50.20;26.40
69204;DHT22;56317;27.658;85.326;2022-10-16T07:33:51;50.50;27.20
69204;DHT22;56317;27.658;85.326;2022-10-16T07:36:20;50.80;27.30
69204;DHT22;56317;27.658;85.326;2022-10-16T07:38:47;50.20;27.50
69204;DHT22;56317;27.658;85.326;2022-10-16T07:41:17;50.20;28.00
69204;DHT22;56317;27.658;85.326;2022-10-16T07:43:50;50.10;27.40
69204;DHT22;56317;27.658;85.326;2022-10-16T07:46:19;49.20;27.90
69204;DHT22;56317;27.658;85.326;2022-10-16T07:48:47;48.70;28.10
69204;DHT22;56317;27.658;85.326;2022-10-16T07:51:20;48.80;27.60
69204;DHT22;56317;27.658;85.326;2022-10-16T07:53:48;48.30;28.80
69204;DHT22;56317;27.658;85.326;2022-10-16T07:56:16;47.20;28.90
69204;DHT22;56317;27.658;85.326;2022-10-16T07:58:44;47.20;29.40
69204;DHT22;56317;27.658;85.326;2022-10-16T08:01:14;46.90;29.70
69204;DHT22;56317;27.658;85.326;2022-10-16T08:03:50;46.80;29.90
69204;DHT22;56317;27.658;85.326;2022-10-16T08:06:19;47.30;29.70
69204;DHT22;56317;27.658;85.326;2022-10-16T08:08:46;47.50;29.70
69204;DHT22;56317;27.658;85.326;2022-10-16T08:11:14;47.50;29.40
69204;DHT22;56317;27.658;85.326;2022-10-16T08:13:42;47.70;29.30
69204;DHT22;56317;27.658;85.326;2022-10-16T08:16:09;47.10;30.00
69204;DHT22;56317;27.658;85.326;2022-10-16T08:18:41;47.10;29.60
69204;DHT22;56317;27.658;85.326;2022-10-16T08:21:13;47.40;29.80
69204;DHT22;56317;27.658;85.326;2022-10-16T08:23:41;47.70;29.70
69204;DHT22;56317;27.658;85.326;2022-10-16T08:26:08;47.90;29.30
69204;DHT22;56317;27.658;85.326;2022-10-16T08:28:36;47.60;29.40
69204;DHT22;56317;27.658;85.326;2022-10-16T08:31:11;47.60;29.70
69204;DHT22;56317;27.658;85.326;2022-10-16T08:33:40;48.10;29.70
69204;DHT22;56317;27.658;85.326;2022-10-16T08:36:08;47.80;29.20
69204;DHT22;56317;27.658;85.326;2022-10-16T08:38:36;47.90;29.30
69204;DHT22;56317;27.658;85.326;2022-10-16T08:41:32;48.50;29.70
69204;DHT22;56317;27.658;85.326;2022-10-16T08:49:30;48.80;28.60
69204;DHT22;56317;27.658;85.326;2022-10-16T08:51:58;48.40;29.20
69204;DHT22;56317;27.658;85.326;2022-10-16T08:54:40;48.40;29.60
69204;DHT22;56317;27.658;85.326;2022-10-16T08:57:29;48.70;29.20
69204;DHT22;56317;27.658;85.326;2022-10-16T09:00:00;48.30;28.90
69204;DHT22;56317;27.658;85.326;2022-10-16T09:02:45;47.80;29.60
69204;DHT22;56317;27.658;85.326;2022-10-16T09:06:12;47.40;29.60
69204;DHT22;56317;27.658;85.326;2022-10-16T09:17:20;47.20;29.50
69204;DHT22;56317;27.658;85.326;2022-10-16T09:22:28;46.70;29.80
69204;DHT22;56317;27.658;85.326;2022-10-16T09:24:57;46.40;29.80
69204;DHT22;56317;27.658;85.326;2022-10-16T09:27:27;46.20;30.00
69204;DHT22;56317;27.658;85.326;2022-10-16T09:29:54;46.70;29.80
69204;DHT22;56317;27.658;85.326;2022-10-16T09:32:22;46.40;30.00
69204;DHT22;56317;27.658;85.326;2022-10-16T09:34:55;46.00;30.30
69204;DHT22;56317;27.658;85.326;2022-10-16T09:37:25;46.00;30.20
69204;DHT22;56317;27.658;85.326;2022-10-16T09:39:53;46.40;30.20
69204;DHT22;56317;27.658;85.326;2022-10-16T09:42:25;46.00;30.30
69204;DHT22;56317;27.658;85.326;2022-10-16T09:44:54;46.60;30.40
69204;DHT22;56317;27.658;85.326;2022-10-16T09:47:24;46.90;29.80
69204;DHT22;56317;27.658;85.326;2022-10-16T09:52:22;47.00;29.70
69204;DHT22;56317;27.658;85.326;2022-10-16T09:57:22;46.40;30.00
69204;DHT22;56317;27.658;85.326;2022-10-16T09:59:51;46.10;30.00
69204;DHT22;56317;27.658;85.326;2022-10-16T10:02:38;46.00;29.90
69204;DHT22;56317;27.658;85.326;2022-10-16T10:05:17;45.40;30.50
69204;DHT22;56317;27.658;85.326;2022-10-16T10:07:45;44.80;30.80
69204;DHT22;56317;27.658;85.326;2022-10-16T10:10:30;44.50;31.20
69204;DHT22;56317;27.658;85.326;2022-10-16T10:12:58;44.10;31.30
69204;DHT22;56317;27.658;85.326;2022-10-16T10:15:34;43.50;32.00
69204;DHT22;56317;27.658;85.326;2022-10-16T10:18:14;43.30;32.30
69204;DHT22;56317;27.658;85.326;2022-10-16T10:20:43;43.10;32.20
69204;DHT22;56317;27.658;85.326;2022-10-16T10:23:24;42.80;32.60
69204;DHT22;56317;27.658;85.326;2022-10-16T10:26:20;42.60;33.00
69204;DHT22;56317;27.658;85.326;2022-10-16T10:29:15;42.40;33.10
69204;DHT22;56317;27.658;85.326;2022-10-16T10:31:48;42.10;33.50
69204;DHT22;56317;27.658;85.326;2022-10-16T10:34:43;41.80;33.80
69204;DHT22;56317;27.658;85.326;2022-10-16T10:50:46;39.20;36.30
69204;DHT22;56317;27.658;85.326;2022-10-16T11:07:42;28.50;48.30
69204;DHT22;56317;27.658;85.326;2022-10-16T11:10:42;27.10;51.60
69204;DHT22;56317;27.658;85.326;2022-10-16T11:15:40;25.40;55.70
69204;DHT22;56317;27.658;85.326;2022-10-16T11:18:33;24.80;57.40
69204;DHT22;56317;27.658;85.326;2022-10-16T11:21:10;24.10;60.50
69204;DHT22;56317;27.658;85.326;2022-10-16T11:26:25;23.30;61.50
69204;DHT22;56317;27.658;85.326;2022-10-16T11:28:56;22.90;62.60
69204;DHT22;56317;27.658;85.326;2022-10-16T11:34:17;22.30;64.50
69204;DHT22;56317;27.658;85.326;2022-10-16T11:39:30;21.90;65.60
69204;DHT22;56317;27.658;85.326;2022-10-16T11:56:04;20.80;70.70
69204;DHT22;56317;27.658;85.326;2022-10-16T11:58:37;20.60;71.00
69204;DHT22;56317;27.658;85.326;2022-10-16T12:01:15;20.50;72.60
69204;DHT22;56317;27.658;85.326;2022-10-16T12:09:25;20.20;73.50
69204;DHT22;56317;27.658;85.326;2022-10-16T12:11:52;20.10;74.50
69204;DHT22;56317;27.658;85.326;2022-10-16T12:14:34;20.00;74.80
69204;DHT22;56317;27.658;85.326;2022-10-16T12:17:24;19.90;76.20
69204;DHT22;56317;27.658;85.326;2022-10-16T12:23:06;19.70;76.20
69204;DHT22;56317;27.658;85.326;2022-10-16T12:25:35;19.50;76.50
69204;DHT22;56317;27.658;85.326;2022-10-16T12:28:21;19.50;79.30
69204;DHT22;56317;27.658;85.326;2022-10-16T12:31:03;19.40;80.80
69204;DHT22;56317;27.658;85.326;2022-10-16T12:36:05;19.30;82.60
69204;DHT22;56317;27.658;85.326;2022-10-16T12:38:48;19.20;81.90
69204;DHT22;56317;27.658;85.326;2022-10-16T12:41:34;19.10;82.10
69204;DHT22;56317;27.658;85.326;2022-10-16T12:44:04;19.00;83.30
69204;DHT22;56317;27.658;85.326;2022-10-16T12:51:55;18.80;83.80
69204;DHT22;56317;27.658;85.326;2022-10-16T12:54:41;18.70;86.30
69204;DHT22;56317;27.658;85.326;2022-10-16T12:57:27;18.70;86.10
69204;DHT22;56317;27.658;85.326;2022-10-16T13:11:38;18.40;87.80
69204;DHT22;56317;27.658;85.326;2022-10-16T13:17:29;18.30;88.60
69204;DHT22;56317;27.658;85.326;2022-10-16T13:20:30;18.20;88.90
69204;DHT22;56317;27.658;85.326;2022-10-16T13:23:13;18.10;88.90
69204;DHT22;56317;27.658;85.326;2022-10-16T13:28:21;18.00;90.20
69204;DHT22;56317;27.658;85.326;2022-10-16T13:30:53;18.00;90.60
69204;DHT22;56317;27.658;85.326;2022-10-16T13:35:58;17.90;88.80
69204;DHT22;56317;27.658;85.326;2022-10-16T13:38:30;17.80;89.50
69204;DHT22;56317;27.658;85.326;2022-10-16T13:41:03;17.70;88.40
69204;DHT22;56317;27.658;85.326;2022-10-16T13:43:50;17.70;88.60
69204;DHT22;56317;27.658;85.326;2022-10-16T13:46:20;17.60;88.60
69204;DHT22;56317;27.658;85.326;2022-10-16T13:49:05;17.50;88.90
69204;DHT22;56317;27.658;85.326;2022-10-16T13:51:38;17.50;90.20
69204;DHT22;56317;27.658;85.326;2022-10-16T13:54:05;17.40;90.20
69204;DHT22;56317;27.658;85.326;2022-10-16T13:56:33;17.30;90.30
69204;DHT22;56317;27.658;85.326;2022-10-16T13:59:03;17.30;90.30
69204;DHT22;56317;27.658;85.326;2022-10-16T14:01:41;17.20;90.10
69204;DHT22;56317;27.658;85.326;2022-10-16T14:04:11;17.20;90.00
69204;DHT22;56317;27.658;85.326;2022-10-16T14:06:46;17.20;89.70
69204;DHT22;56317;27.658;85.326;2022-10-16T14:09:27;17.20;89.50
69204;DHT22;56317;27.658;85.326;2022-10-16T14:12:10;17.20;89.10
69204;DHT22;56317;27.658;85.326;2022-10-16T14:14:43;17.20;87.90
69204;DHT22;56317;27.658;85.326;2022-10-16T14:19:50;17.00;86.60
69204;DHT22;56317;27.658;85.326;2022-10-16T14:22:42;17.00;87.70
69204;DHT22;56317;27.658;85.326;2022-10-16T14:25:26;16.90;87.50
69204;DHT22;56317;27.658;85.326;2022-10-16T14:28:17;16.70;87.60
69204;DHT22;56317;27.658;85.326;2022-10-16T14:30:59;16.70;87.00
69204;DHT22;56317;27.658;85.326;2022-10-16T14:36:21;16.50;84.80
69204;DHT22;56317;27.658;85.326;2022-10-16T14:39:01;16.50;84.20
69204;DHT22;56317;27.658;85.326;2022-10-16T14:41:31;16.50;84.30
69204;DHT22;56317;27.658;85.326;2022-10-16T14:44:03;16.50;84.10
69204;DHT22;56317;27.658;85.326;2022-10-16T14:46:36;16.40;84.20
69204;DHT22;56317;27.658;85.326;2022-10-16T14:51:38;16.30;85.10
69204;DHT22;56317;27.658;85.326;2022-10-16T14:54:12;16.20;86.20
69204;DHT22;56317;27.658;85.326;2022-10-16T14:56:49;16.20;85.10
69204;DHT22;56317;27.658;85.326;2022-10-16T14:59:22;16.20;85.30
69204;DHT22;56317;27.658;85.326;2022-10-16T15:01:51;16.10;85.50
69204;DHT22;56317;27.658;85.326;2022-10-16T15:04:18;16.20;85.70
69204;DHT22;56317;27.658;85.326;2022-10-16T15:06:46;16.20;85.50
69204;DHT22;56317;27.658;85.326;2022-10-16T15:09:13;16.10;85.50
69204;DHT22;56317;27.658;85.326;2022-10-16T15:11:41;16.10;85.60
69204;DHT22;56317;27.658;85.326;2022-10-16T15:14:13;16.00;86.20
69204;DHT22;56317;27.658;85.326;2022-10-16T15:16:41;15.90;86.70
69204;DHT22;56317;27.658;85.326;2022-10-16T15:19:08;15.80;88.50
69204;DHT22;56317;27.658;85.326;2022-10-16T15:21:35;15.80;87.70
69204;DHT22;56317;27.658;85.326;2022-10-16T15:24:02;15.60;86.70
69204;DHT22;56317;27.658;85.326;2022-10-16T15:26:30;15.60;85.30
69204;DHT22;56317;27.658;85.326;2022-10-16T15:28:57;15.50;84.70
69204;DHT22;56317;27.658;85.326;2022-10-16T15:31:25;15.50;85.20
69204;DHT22;56317;27.658;85.326;2022-10-16T15:33:53;15.40;85.50
69204;DHT22;56317;27.658;85.326;2022-10-16T15:36:29;15.30;85.80
69204;DHT22;56317;27.658;85.326;2022-10-16T15:38:56;15.20;86.70
69204;DHT22;56317;27.658;85.326;2022-10-16T15:41:24;15.10;86.80
69204;DHT22;56317;27.658;85.326;2022-10-16T15:43:51;15.10;85.70
69204;DHT22;56317;27.658;85.326;2022-10-16T15:46:20;15.10;85.40
69204;DHT22;56317;27.658;85.326;2022-10-16T15:48:49;15.10;85.60
69204;DHT22;56317;27.658;85.326;2022-10-16T15:51:18;15.10;85.80
69204;DHT22;56317;27.658;85.326;2022-10-16T15:53:45;15.10;85.80
69204;DHT22;56317;27.658;85.326;2022-10-16T15:56:13;15.00;86.60
69204;DHT22;56317;27.658;85.326;2022-10-16T15:58:41;15.00;86.60
69204;DHT22;56317;27.658;85.326;2022-10-16T16:01:09;15.00;86.90
69204;DHT22;56317;27.658;85.326;2022-10-16T16:03:38;15.00;87.70
69204;DHT22;56317;27.658;85.326;2022-10-16T16:06:09;14.90;88.40
69204;DHT22;56317;27.658;85.326;2022-10-16T16:08:37;14.90;88.40
69204;DHT22;56317;27.658;85.326;2022-10-16T16:11:13;14.80;88.60
69204;DHT22;56317;27.658;85.326;2022-10-16T16:13:40;14.80;88.50
69204;DHT22;56317;27.658;85.326;2022-10-16T16:16:09;14.80;88.70
69204;DHT22;56317;27.658;85.326;2022-10-16T16:18:37;14.80;88.50
69204;DHT22;56317;27.658;85.326;2022-10-16T16:21:05;14.90;88.40
69204;DHT22;56317;27.658;85.326;2022-10-16T16:23:32;14.90;88.10
69204;DHT22;56317;27.658;85.326;2022-10-16T16:26:29;14.90;88.20
69204;DHT22;56317;27.658;85.326;2022-10-16T16:29:03;14.90;88.40
69204;DHT22;56317;27.658;85.326;2022-10-16T16:31:32;14.90;89.10
69204;DHT22;56317;27.658;85.326;2022-10-16T16:34:00;14.90;88.50
69204;DHT22;56317;27.658;85.326;2022-10-16T16:36:27;14.90;88.50
69204;DHT22;56317;27.658;85.326;2022-10-16T16:38:54;14.90;88.50
69204;DHT22;56317;27.658;85.326;2022-10-16T16:41:27;14.90;88.40
69204;DHT22;56317;27.658;85.326;2022-10-16T16:44:02;15.00;88.00
69204;DHT22;56317;27.658;85.326;2022-10-16T16:46:30;15.20;88.00
69204;DHT22;56317;27.658;85.326;2022-10-16T16:48:58;15.20;87.90
69204;DHT22;56317;27.658;85.326;2022-10-16T16:51:26;15.20;87.70
69204;DHT22;56317;27.658;85.326;2022-10-16T16:53:54;15.20;87.90
69204;DHT22;56317;27.658;85.326;2022-10-16T16:56:22;15.20;87.80
69204;DHT22;56317;27.658;85.326;2022-10-16T16:58:51;15.20;87.80
69204;DHT22;56317;27.658;85.326;2022-10-16T17:01:20;15.10;88.50
69204;DHT22;56317;27.658;85.326;2022-10-16T17:03:49;15.00;89.30
69204;DHT22;56317;27.658;85.326;2022-10-16T17:06:19;14.90;90.00
69204;DHT22;56317;27.658;85.326;2022-10-16T17:08:47;14.80;90.40
69204;DHT22;56317;27.658;85.326;2022-10-16T17:11:21;14.80;90.30
69204;DHT22;56317;27.658;85.326;2022-10-16T17:13:49;14.70;90.40
69204;DHT22;56317;27.658;85.326;2022-10-16T17:16:17;14.60;90.70
69204;DHT22;56317;27.658;85.326;2022-10-16T17:18:44;14.50;90.70
69204;DHT22;56317;27.658;85.326;2022-10-16T17:21:12;14.60;91.40
69204;DHT22;56317;27.658;85.326;2022-10-16T17:23:39;14.50;91.50
69204;DHT22;56317;27.658;85.326;2022-10-16T17:26:12;14.50;91.90
69204;DHT22;56317;27.658;85.326;2022-10-16T17:28:41;14.40;91.80
69204;DHT22;56317;27.658;85.326;2022-10-16T17:31:13;14.40;91.80
69204;DHT22;56317;27.658;85.326;2022-10-16T17:33:40;14.30;92.00
69204;DHT22;56317;27.658;85.326;2022-10-16T17:36:08;14.30;91.90
69204;DHT22;56317;27.658;85.326;2022-10-16T17:38:37;14.30;92.10
69204;DHT22;56317;27.658;85.326;2022-10-16T17:43:42;14.20;92.20
69204;DHT22;56317;27.658;85.326;2022-10-16T17:46:10;14.10;92.10
69204;DHT22;56317;27.658;85.326;2022-10-16T17:48:43;14.10;91.90
69204;DHT22;56317;27.658;85.326;2022-10-16T17:51:12;14.10;92.00
69204;DHT22;56317;27.658;85.326;2022-10-16T17:53:40;14.10;91.80
69204;DHT22;56317;27.658;85.326;2022-10-16T17:56:10;14.10;91.60